createdAt,value
2022-08-17T16:00:01.742Z,33.14
2022-08-17T16:01:01.714Z,33.8
2022-08-17T16:02:01.855Z,33.89
2022-08-17T16:03:01.692Z,34.58
2022-08-17T16:04:01.685Z,34.96
2022-08-17T16:05:01.671Z,34.91
2022-08-17T16:06:01.658Z,34.81
2022-08-17T16:07:01.652Z,34.73
2022-08-17T16:08:01.637Z,34.88
2022-08-17T16:09:01.633Z,35.06
2022-08-17T16:10:01.663Z,-40
2022-08-17T16:11:01.611Z,-40
2022-08-17T16:12:01.608Z,-40
2022-08-17T16:13:01.585Z,-40
2022-08-17T16:14:01.577Z,-40
2022-08-17T16:15:01.592Z,-40
2022-08-17T16:16:01.565Z,-40
2022-08-17T16:17:01.579Z,-40
2022-08-17T16:18:01.547Z,-40
2022-08-17T16:19:01.528Z,-40
2022-08-17T16:20:01.515Z,-40
2022-08-17T16:21:01.508Z,-40
2022-08-17T16:22:01.491Z,-40
2022-08-17T16:23:01.482Z,-40
2022-08-17T16:24:01.486Z,-40
2022-08-17T16:25:01.466Z,-40
2022-08-17T16:26:01.458Z,-40
2022-08-17T16:27:01.488Z,-40
2022-08-17T16:28:01.456Z,-40
2022-08-17T16:29:01.441Z,-40
2022-08-17T16:30:01.411Z,-40
2022-08-17T16:31:01.401Z,-40
2022-08-17T16:32:01.384Z,-40
2022-08-17T16:33:01.394Z,-40
2022-08-17T16:34:01.371Z,-40
2022-08-17T16:35:01.392Z,-40
2022-08-17T16:36:01.358Z,-40
2022-08-17T16:37:01.361Z,-40
2022-08-17T16:38:01.324Z,-40
2022-08-17T16:39:01.314Z,-40
2022-08-17T16:40:01.319Z,-40
2022-08-17T16:41:01.301Z,-40
2022-08-17T16:42:01.306Z,-40
2022-08-17T16:43:01.275Z,-40
2022-08-17T16:44:01.281Z,-40
2022-08-17T16:45:01.267Z,-40
2022-08-17T16:46:01.253Z,-40
2022-08-17T16:47:01.235Z,-40
2022-08-17T16:48:01.221Z,-40
2022-08-17T16:49:01.217Z,-40
2022-08-17T16:50:01.216Z,-40
2022-08-17T16:51:01.193Z,-40
2022-08-17T16:52:01.230Z,-40
2022-08-17T16:53:01.169Z,-40
2022-08-17T16:54:01.163Z,-40
2022-08-17T16:55:01.167Z,-40
2022-08-17T16:56:01.136Z,-40
2022-08-17T16:57:01.130Z,-40
2022-08-17T16:58:01.118Z,-40
2022-08-17T16:59:01.127Z,-40
2022-08-17T17:00:01.098Z,-40
2022-08-17T17:01:01.084Z,-40
2022-08-17T17:02:01.098Z,-40
2022-08-17T17:03:01.059Z,-40
2022-08-17T17:04:01.049Z,-40
2022-08-17T17:05:01.040Z,-40
2022-08-17T17:06:01.040Z,-40
2022-08-17T17:07:01.016Z,-40
2022-08-17T17:08:01.031Z,-40
2022-08-17T17:09:01.011Z,-40
2022-08-17T17:10:00.989Z,-40
2022-08-17T17:11:00.975Z,-40
2022-08-17T17:12:00.985Z,-40
2022-08-17T17:13:00.959Z,-40
2022-08-17T17:14:00.951Z,-40
2022-08-17T17:15:00.935Z,-40
2022-08-17T17:16:00.935Z,-40
2022-08-17T17:17:00.912Z,-40
2022-08-17T17:18:00.905Z,-40
2022-08-17T17:19:00.906Z,-40
2022-08-17T17:20:00.881Z,-40
2022-08-17T17:21:00.868Z,-40
2022-08-17T17:22:00.855Z,-40
2022-08-17T17:23:00.849Z,-40
2022-08-17T17:24:00.834Z,-40
2022-08-17T17:25:00.824Z,-40
2022-08-17T17:26:00.812Z,-40
2022-08-17T17:27:00.810Z,-40
2022-08-17T17:28:00.796Z,-40
2022-08-17T17:29:00.782Z,-40
2022-08-17T17:30:00.772Z,-40
2022-08-17T17:31:00.764Z,-40
2022-08-17T17:32:00.833Z,-40
2022-08-17T17:33:00.744Z,-40
2022-08-17T17:34:00.734Z,-40
2022-08-17T17:35:00.724Z,-40
2022-08-17T17:36:00.711Z,-40
2022-08-17T17:37:00.729Z,-40
2022-08-17T17:38:00.691Z,-40
2022-08-17T17:39:00.695Z,-40
2022-08-17T17:40:00.667Z,-40
2022-08-17T17:41:00.658Z,-40
2022-08-17T17:42:00.645Z,-40
2022-08-17T17:43:00.666Z,-40
2022-08-17T17:44:00.648Z,-40
2022-08-17T17:45:00.634Z,-40
2022-08-17T17:46:00.609Z,-40
2022-08-17T17:47:00.607Z,-40
2022-08-17T17:48:00.580Z,-40
2022-08-17T17:49:00.571Z,-40
2022-08-17T17:50:00.574Z,-40
2022-08-17T17:51:00.578Z,-40
2022-08-17T17:52:00.540Z,-40
2022-08-17T17:53:00.539Z,-40
2022-08-17T17:54:00.539Z,-40
2022-08-17T17:55:00.514Z,-40
2022-08-17T17:56:00.503Z,-40
2022-08-17T17:57:00.492Z,-40
2022-08-17T17:58:00.484Z,-40
2022-08-17T17:59:00.478Z,-40
2022-08-17T18:00:00.455Z,-40
2022-08-17T18:01:00.449Z,-40
2022-08-17T18:02:00.453Z,-40
2022-08-17T18:03:00.445Z,-40
2022-08-17T18:04:00.435Z,-40
2022-08-17T18:05:00.412Z,-40
2022-08-17T18:06:00.396Z,-40
2022-08-17T18:07:00.389Z,-40
2022-08-17T18:08:00.404Z,-40
2022-08-17T18:09:00.369Z,-40
2022-08-17T18:10:00.361Z,-40
2022-08-17T18:11:00.373Z,-40
2022-08-17T18:12:00.392Z,-40
2022-08-17T18:13:00.328Z,-40
2022-08-17T18:14:00.314Z,-40
2022-08-17T18:15:00.303Z,-40
2022-08-17T18:16:00.300Z,-40
2022-08-17T18:17:00.285Z,-40
2022-08-17T18:18:00.286Z,-40
2022-08-17T18:19:00.269Z,-40
2022-08-17T18:20:00.276Z,-40
2022-08-17T18:21:00.245Z,-40
2022-08-17T18:22:00.240Z,-40
2022-08-17T18:23:00.235Z,-40
2022-08-17T18:24:00.212Z,-40
2022-08-17T18:25:00.221Z,-40
2022-08-17T18:26:00.202Z,-40
2022-08-17T18:27:00.175Z,-40
2022-08-17T18:28:00.186Z,-40
2022-08-17T18:29:00.152Z,-40
2022-08-17T18:30:00.176Z,-40
2022-08-17T18:31:00.154Z,-40
2022-08-17T18:32:00.135Z,-40
2022-08-17T18:33:00.116Z,-40
2022-08-17T18:34:00.119Z,-40
2022-08-17T18:35:00.094Z,-40
2022-08-17T18:36:00.093Z,-40
2022-08-17T18:37:00.087Z,-40
2022-08-17T18:38:00.060Z,-40
2022-08-17T18:39:00.058Z,-40
2022-08-17T18:40:00.040Z,-40
2022-08-17T18:41:00.030Z,-40
2022-08-17T18:42:00.046Z,-40
2022-08-17T18:43:00.014Z,-40
2022-08-17T18:43:59.997Z,-40
2022-08-17T18:44:59.990Z,-40
2022-08-17T18:45:59.983Z,-40
2022-08-17T18:46:59.969Z,-40
2022-08-17T18:47:59.975Z,-40
2022-08-17T18:48:59.971Z,-40
2022-08-17T18:49:59.950Z,-40
2022-08-17T18:50:59.928Z,-40
2022-08-17T18:51:59.916Z,-40
2022-08-17T18:52:59.901Z,-40
2022-08-17T18:53:59.887Z,-40
2022-08-17T18:54:59.879Z,-40
2022-08-17T18:55:59.868Z,-40
2022-08-17T18:56:59.871Z,-40
2022-08-17T18:57:59.847Z,-40
2022-08-17T18:58:59.848Z,-40
2022-08-17T18:59:59.831Z,-40
2022-08-17T19:00:59.813Z,-40
2022-08-17T19:01:59.802Z,-40
2022-08-17T19:02:59.800Z,-40
2022-08-17T19:03:59.782Z,-40
2022-08-17T19:04:59.786Z,-40
2022-08-17T19:05:59.767Z,-40
2022-08-17T19:06:59.754Z,-40
2022-08-17T19:07:59.738Z,-40
2022-08-17T19:08:59.754Z,-40
2022-08-17T19:09:59.717Z,-40
2022-08-17T19:10:59.709Z,-40
2022-08-17T19:11:59.725Z,-40
2022-08-17T19:12:59.686Z,-40
2022-08-17T19:13:59.678Z,-40
2022-08-17T19:14:59.678Z,-40
2022-08-17T19:15:59.660Z,-40
2022-08-17T19:16:59.652Z,-40
2022-08-17T19:17:59.638Z,-40
2022-08-17T19:18:59.631Z,-40
2022-08-17T19:19:59.615Z,-40
2022-08-17T19:20:59.614Z,-40
2022-08-17T19:21:59.620Z,-40
2022-08-17T19:22:59.617Z,-40
2022-08-17T19:23:59.603Z,-40
2022-08-17T19:24:59.559Z,-40
2022-08-17T19:25:59.552Z,-40
2022-08-17T19:26:59.549Z,-40
2022-08-17T19:27:59.564Z,-40
2022-08-17T19:28:59.536Z,-40
2022-08-17T19:29:59.503Z,-40
2022-08-17T19:30:59.497Z,-40
2022-08-17T19:31:59.492Z,-40
2022-08-17T19:32:59.471Z,-40
2022-08-17T19:33:59.468Z,-40
2022-08-17T19:34:59.457Z,-40
2022-08-17T19:35:59.455Z,-40
2022-08-17T19:36:59.431Z,-40
2022-08-17T19:37:59.426Z,-40
2022-08-17T19:38:59.463Z,-40
2022-08-17T19:39:59.396Z,-40
2022-08-17T19:40:59.400Z,-40
2022-08-17T19:41:59.378Z,-40
2022-08-17T19:42:59.370Z,-40
2022-08-17T19:43:59.386Z,-40
2022-08-17T19:44:59.352Z,-40
2022-08-17T19:45:59.357Z,-40
2022-08-17T19:46:59.331Z,-40
2022-08-17T19:47:59.311Z,-40
2022-08-17T19:48:59.305Z,-40
2022-08-17T19:49:59.299Z,-40
2022-08-17T19:50:59.292Z,-40
2022-08-17T19:51:59.272Z,-40
2022-08-17T19:52:59.282Z,-40
2022-08-17T19:53:59.260Z,-40
2022-08-17T19:54:59.237Z,-40
2022-08-17T19:55:59.236Z,-40
2022-08-17T19:56:59.216Z,-40
2022-08-17T19:57:59.207Z,-40
2022-08-17T19:58:59.197Z,-40
2022-08-17T19:59:59.193Z,-40
2022-08-17T20:00:59.181Z,-40
2022-08-17T20:01:59.170Z,-40
2022-08-17T20:02:59.166Z,-40
2022-08-17T20:03:59.150Z,-40
2022-08-17T20:04:59.131Z,-40
2022-08-17T20:05:59.131Z,-40
2022-08-17T20:06:59.112Z,-40
2022-08-17T20:07:59.121Z,-40
2022-08-17T20:08:59.130Z,-40
2022-08-17T20:09:59.083Z,-40
2022-08-17T20:10:59.073Z,-40
2022-08-17T20:11:59.062Z,-40
2022-08-17T20:12:59.050Z,-40
2022-08-17T20:13:59.055Z,-40
2022-08-17T20:14:59.031Z,-40
2022-08-17T20:15:59.037Z,-40
2022-08-17T20:16:59.006Z,-40
2022-08-17T20:17:58.993Z,-40
2022-08-17T20:18:58.994Z,-40
2022-08-17T20:19:58.974Z,-40
2022-08-17T20:20:59.002Z,-40
2022-08-17T20:21:58.955Z,-40
2022-08-17T20:22:58.939Z,-40
2022-08-17T20:23:58.939Z,-40
2022-08-17T20:24:58.934Z,-40
2022-08-17T20:25:58.932Z,-40
2022-08-17T20:26:58.907Z,-40
2022-08-17T20:27:58.910Z,-40
2022-08-17T20:28:58.903Z,-40
2022-08-17T20:29:58.869Z,-40
2022-08-17T20:30:58.896Z,-40
2022-08-17T20:31:58.860Z,-40
2022-08-17T20:32:58.880Z,-40
2022-08-17T20:33:58.859Z,-40
2022-08-17T20:34:58.893Z,-40
2022-08-17T20:35:58.824Z,-40
2022-08-17T20:36:58.854Z,-40
2022-08-17T20:37:58.791Z,-40
2022-08-17T20:38:58.777Z,-40
2022-08-17T20:39:58.787Z,-40
2022-08-17T20:40:58.752Z,-40
2022-08-17T20:41:58.744Z,-40
2022-08-17T20:42:58.738Z,-40
2022-08-17T20:43:58.718Z,-40
2022-08-17T20:44:58.718Z,-40
2022-08-17T20:45:58.704Z,-40
2022-08-17T20:46:58.691Z,-40
2022-08-17T20:48:58.663Z,-40
2022-08-17T20:49:59.416Z,-40
2022-08-17T20:50:58.643Z,-40
2022-08-17T20:51:58.631Z,-40
2022-08-17T20:52:58.621Z,-40
2022-08-17T20:53:58.615Z,-40
2022-08-17T20:54:58.607Z,-40
2022-08-17T20:55:58.605Z,-40
2022-08-17T20:56:58.584Z,-40
2022-08-17T20:57:58.618Z,-40
2022-08-17T20:58:58.562Z,-40
2022-08-17T20:59:58.560Z,-40
2022-08-17T21:00:58.544Z,-40
2022-08-17T21:01:58.537Z,-40
2022-08-17T21:02:58.519Z,-40
2022-08-17T21:03:58.514Z,-40
2022-08-17T21:04:58.543Z,-40
2022-08-17T21:05:58.485Z,-40
2022-08-17T21:06:58.472Z,-40
2022-08-17T21:07:58.491Z,-40
2022-08-17T21:08:58.456Z,-40
2022-08-17T21:09:58.446Z,-40
2022-08-17T21:10:58.464Z,-40
2022-08-17T21:11:58.429Z,-40
2022-08-17T21:12:58.416Z,-40
2022-08-17T21:13:58.397Z,-40
2022-08-17T21:14:58.394Z,-40
2022-08-17T21:15:58.378Z,-40
2022-08-17T21:16:58.367Z,-40
2022-08-17T21:17:58.358Z,-40
2022-08-17T21:18:58.354Z,-40
2022-08-17T21:19:58.331Z,-40
2022-08-17T21:20:58.328Z,-40
2022-08-17T21:21:58.316Z,-40
2022-08-17T21:22:58.315Z,-40
2022-08-17T21:23:58.297Z,-40
2022-08-17T21:24:58.291Z,-40
2022-08-17T21:25:58.276Z,-40
2022-08-17T21:26:58.283Z,-40
2022-08-17T21:27:58.253Z,-40
2022-08-17T21:28:58.245Z,-40
2022-08-17T21:29:58.233Z,-40
2022-08-17T21:30:58.234Z,-40
2022-08-17T21:31:58.214Z,-40
2022-08-17T21:32:58.250Z,-40
2022-08-17T21:33:58.193Z,-40
2022-08-17T21:34:58.180Z,-40
2022-08-17T21:35:58.169Z,-40
2022-08-17T21:36:58.167Z,-40
2022-08-17T21:37:58.144Z,-40
2022-08-17T21:38:58.130Z,-40
2022-08-17T21:39:58.127Z,-40
2022-08-17T21:40:58.115Z,-40
2022-08-17T21:41:58.111Z,-40
2022-08-17T21:42:58.091Z,-40
2022-08-17T21:43:58.078Z,-40
2022-08-17T21:44:58.075Z,-40
2022-08-17T21:45:58.067Z,-40
2022-08-17T21:46:58.055Z,-40
2022-08-17T21:47:58.048Z,-40
2022-08-17T21:48:58.032Z,-40
2022-08-17T21:49:58.023Z,-40
2022-08-17T21:50:58.004Z,-40
2022-08-17T21:51:57.994Z,-40
2022-08-17T21:52:57.985Z,-40
2022-08-17T21:53:57.990Z,-40
2022-08-17T21:54:57.961Z,-40
2022-08-17T21:55:57.953Z,-40
2022-08-17T21:56:57.950Z,-40
2022-08-17T21:57:57.936Z,-40
2022-08-17T21:58:57.927Z,-40
2022-08-17T21:59:57.918Z,-40
2022-08-17T22:00:57.903Z,-40
2022-08-17T22:01:57.894Z,-40
2022-08-17T22:02:57.879Z,-40
2022-08-17T22:03:57.877Z,-40
2022-08-17T22:04:57.865Z,-40
2022-08-17T22:05:57.842Z,-40
2022-08-17T22:06:57.835Z,-40
2022-08-17T22:07:57.832Z,-40
2022-08-17T22:08:57.818Z,-40
2022-08-17T22:09:57.806Z,-40
2022-08-17T22:10:57.800Z,-40
2022-08-17T22:11:57.805Z,-40
2022-08-17T22:12:57.769Z,-40
2022-08-17T22:13:57.793Z,-40
2022-08-17T22:14:57.758Z,-40
2022-08-17T22:15:57.764Z,-40
2022-08-17T22:16:57.765Z,-40
2022-08-17T22:17:57.717Z,-40
2022-08-17T22:18:57.706Z,-40
2022-08-17T22:19:57.695Z,-40
2022-08-17T22:20:57.684Z,-40
2022-08-17T22:21:57.676Z,-40
2022-08-17T22:22:57.691Z,-40
2022-08-17T22:23:57.655Z,-40
2022-08-17T22:24:57.641Z,-40
2022-08-17T22:25:57.633Z,-40
2022-08-17T22:26:57.621Z,-40
2022-08-17T22:27:57.611Z,-40
2022-08-17T22:28:57.608Z,-40
2022-08-17T22:29:57.599Z,-40
2022-08-17T22:30:57.582Z,-40
2022-08-17T22:31:57.571Z,-40
2022-08-17T22:32:57.562Z,-40
2022-08-17T22:33:57.555Z,-40
2022-08-17T22:34:57.556Z,-40
2022-08-17T22:35:57.529Z,-40
2022-08-17T22:36:57.529Z,-40
2022-08-17T22:37:57.503Z,-40
2022-08-17T22:38:57.503Z,-40
2022-08-17T22:39:57.523Z,-40
2022-08-17T22:40:57.476Z,-40
2022-08-17T22:41:57.486Z,-40
2022-08-17T22:42:57.453Z,-40
2022-08-17T22:43:57.478Z,-40
2022-08-17T22:44:57.443Z,-40
2022-08-17T22:45:57.434Z,-40
2022-08-17T22:46:57.411Z,-40
2022-08-17T22:47:57.398Z,-40
2022-08-17T22:48:57.390Z,-40
2022-08-17T22:49:57.391Z,-40
2022-08-17T22:50:57.395Z,-40
2022-08-17T22:51:57.370Z,-40
2022-08-17T22:52:57.348Z,-40
2022-08-17T22:53:57.332Z,-40
2022-08-17T22:54:57.324Z,-40
2022-08-17T22:55:57.334Z,-40
2022-08-17T22:56:57.354Z,-40
2022-08-17T22:57:57.293Z,-40
2022-08-17T22:58:57.284Z,-40
2022-08-17T22:59:57.278Z,-40
2022-08-17T23:00:57.260Z,-40
2022-08-17T23:01:57.246Z,-40
2022-08-17T23:02:57.249Z,-40
2022-08-17T23:03:57.248Z,-40
2022-08-17T23:04:57.217Z,-40
2022-08-17T23:05:57.206Z,-40
2022-08-17T23:06:57.204Z,-40
2022-08-17T23:07:57.186Z,-40
2022-08-17T23:08:57.192Z,-40
2022-08-17T23:09:57.164Z,-40
2022-08-17T23:10:57.161Z,-40
2022-08-17T23:11:57.151Z,-40
2022-08-17T23:12:57.132Z,-40
2022-08-17T23:13:57.122Z,-40
2022-08-17T23:14:57.108Z,-40
2022-08-17T23:15:57.097Z,-40
2022-08-17T23:16:57.090Z,-40
2022-08-17T23:17:57.091Z,-40
2022-08-17T23:18:57.087Z,-40
2022-08-17T23:19:57.066Z,-40
2022-08-17T23:20:57.057Z,-40
2022-08-17T23:21:57.052Z,-40
2022-08-17T23:22:57.036Z,-40
2022-08-17T23:23:57.032Z,-40
2022-08-17T23:24:57.056Z,-40
2022-08-17T23:25:56.999Z,-40
2022-08-17T23:26:56.978Z,-40
2022-08-17T23:27:56.973Z,-40
2022-08-17T23:28:56.973Z,-40
2022-08-17T23:29:56.956Z,-40
2022-08-17T23:30:56.936Z,-40
2022-08-17T23:31:56.941Z,-40
2022-08-17T23:32:56.921Z,-40
2022-08-17T23:33:56.910Z,-40
2022-08-17T23:34:56.900Z,-40
2022-08-17T23:35:56.889Z,-40
2022-08-17T23:36:56.875Z,-40
2022-08-17T23:37:56.881Z,-40
2022-08-17T23:38:56.853Z,-40
2022-08-17T23:39:56.851Z,-40
2022-08-17T23:40:56.848Z,-40
2022-08-17T23:41:56.823Z,-40
2022-08-17T23:42:56.815Z,-40
2022-08-17T23:43:56.796Z,-40
2022-08-17T23:44:56.844Z,-40
2022-08-17T23:45:56.787Z,-40
2022-08-17T23:46:56.783Z,-40
2022-08-17T23:47:56.763Z,-40
2022-08-17T23:48:56.745Z,-40
2022-08-17T23:49:56.733Z,-40
2022-08-17T23:50:56.725Z,-40
2022-08-17T23:51:56.710Z,-40
2022-08-17T23:52:56.721Z,-40
2022-08-17T23:53:56.702Z,-40
2022-08-17T23:54:56.698Z,-40
2022-08-17T23:55:56.672Z,-40
2022-08-17T23:56:56.662Z,-40
2022-08-17T23:57:56.699Z,-40
2022-08-17T23:58:56.655Z,-40
2022-08-17T23:59:56.632Z,-40
